Explorer — C6TN4 — position and weather

sailwx.info

Track history (hours):
 
Tides and Currents Weather Stations Pressure Air Temp Water Temp Dewpoint Dewpoint Depression Visibility Wind Speed Wind Dir Waves Ship Positions

Explorer

Last reported at 2014-Oct-25 07:11 UTC. Time now 2014-Oct-25 22:16 UTC.
Position N 35°57' W 005°35'.

Length 180 m; draft 7.3 m.

Type: Passenger vessel. MMSI: 311705000.

Date/timePositionNaut miles runAvg speedWind from/ knotsBaromVisibWave heightAir tempDewpointWater temp
2014-Oct-25 07:11N 35°57' W 005°35'1117.1
2014-Oct-25 06:33N 36°01' W 005°22'23213.6
2014-Oct-24 13:30N 37°22' W 000°51'1515.2
2014-Oct-24 12:30N 37°32' W 000°37'1414.8
2014-Oct-24 11:33N 37°43' W 000°26'1614.5
2014-Oct-24 10:26N 37°57' W 000°15'1914.9
2014-Oct-24 09:08N 38°13' W 000°02'1015.1
2014-Oct-24 08:29N 38°22' E 000°04'1514.8
2014-Oct-24 07:27N 38°34' E 000°16'14516.2
2014-Oct-23 22:30N 40°41' E 001°47'3 2.5
2014-Oct-23 21:14N 40°44' E 001°49'1414.6
2014-Oct-23 20:15N 40°56' E 001°58'1214.6
2014-Oct-23 19:25N 41°07' E 002°06'1414.9
2014-Oct-23 18:31N 41°19' E 002°13'  
2014-Oct-20 17:12N 41°22' E 002°11'126 5.8
2014-Oct-19 19:33N 41°20' E 004°58'1612.5
2014-Oct-19 18:15N 41°20' E 005°20'2412.9
2014-Oct-19 16:22N 41°20' E 005°52'2413.1
2014-Oct-19 14:32N 41°20' E 006°25'1313.0
2014-Oct-19 13:31N 41°20' E 006°42'1513.5
2014-Oct-19 12:22N 41°20' E 007°03'2612.4
2014-Oct-19 10:16N 41°20' E 007°38'12312.6
2014-Oct-19 00:30N 41°41' E 010°19'  
Track history (hours):
 
Tides and Currents Weather Stations Pressure Air Temp Water Temp Dewpoint Dewpoint Depression Visibility Wind Speed Wind Dir Waves Ship Positions

Explorer

Last reported at 2014-Oct-25 07:11 UTC. Time now 2014-Oct-25 22:16 UTC.
Position N 35°57' W 005°35'.

Length 180 m; draft 7.3 m.

Type: Passenger vessel. MMSI: 311705000.

Date/timePositionNaut miles runAvg speedWind from/ knotsBaromVisibWave heightAir tempDewpointWater temp
2014-Oct-25 07:11N 35°57' W 005°35'1117.1
2014-Oct-25 06:33N 36°01' W 005°22'23213.6
2014-Oct-24 13:30N 37°22' W 000°51'1515.2
2014-Oct-24 12:30N 37°32' W 000°37'1414.8
2014-Oct-24 11:33N 37°43' W 000°26'1614.5
2014-Oct-24 10:26N 37°57' W 000°15'1914.9
2014-Oct-24 09:08N 38°13' W 000°02'1015.1
2014-Oct-24 08:29N 38°22' E 000°04'1514.8
2014-Oct-24 07:27N 38°34' E 000°16'14516.2
2014-Oct-23 22:30N 40°41' E 001°47'3 2.5
2014-Oct-23 21:14N 40°44' E 001°49'1414.6
2014-Oct-23 20:15N 40°56' E 001°58'1214.6
2014-Oct-23 19:25N 41°07' E 002°06'1414.9
2014-Oct-23 18:31N 41°19' E 002°13'  
2014-Oct-20 17:12N 41°22' E 002°11'126 5.8
2014-Oct-19 19:33N 41°20' E 004°58'1612.5
2014-Oct-19 18:15N 41°20' E 005°20'2412.9
2014-Oct-19 16:22N 41°20' E 005°52'2413.1
2014-Oct-19 14:32N 41°20' E 006°25'1313.0
2014-Oct-19 13:31N 41°20' E 006°42'1513.5
2014-Oct-19 12:22N 41°20' E 007°03'2612.4
2014-Oct-19 10:16N 41°20' E 007°38'12312.6
2014-Oct-19 00:30N 41°41' E 010°19'  

Dump ship's entire track history